createdAt,value
2018-05-15T00:00:44.873Z,6.97
2018-05-15T00:03:12.536Z,6.80
2018-05-15T00:05:40.241Z,8.73
2018-05-15T00:08:08.719Z,6.60
2018-05-15T00:10:36.371Z,8.13
2018-05-15T00:13:04.079Z,9.57
2018-05-15T00:15:31.754Z,6.53
2018-05-15T00:17:59.463Z,7.13
2018-05-15T00:20:27.136Z,8.43
2018-05-15T00:22:55.685Z,8.20
2018-05-15T00:25:23.397Z,8.67
2018-05-15T00:27:51.092Z,7.37
2018-05-15T00:30:18.809Z,8.10
2018-05-15T00:32:47.237Z,9.87
2018-05-15T00:35:14.946Z,7.00
2018-05-15T00:37:43.376Z,9.57
2018-05-15T00:40:11.087Z,9.10
2018-05-15T00:42:39.511Z,9.83
2018-05-15T00:45:07.174Z,8.07
2018-05-15T00:47:34.868Z,7.60
2018-05-15T00:50:02.609Z,8.20
2018-05-15T00:52:30.255Z,9.40
2018-05-15T00:55:09.635Z,7.30
2018-05-15T00:57:38.108Z,8.93
2018-05-15T01:00:05.803Z,6.67
2018-05-15T01:02:33.459Z,7.70
2018-05-15T01:05:01.186Z,10.03
2018-05-15T01:07:28.843Z,8.30
2018-05-15T01:09:56.511Z,9.07
2018-05-15T01:12:24.220Z,8.70
2018-05-15T01:14:51.947Z,9.23
2018-05-15T01:17:20.380Z,7.50
2018-05-15T01:19:48.091Z,9.37
2018-05-15T01:22:16.522Z,7.97
2018-05-15T01:24:44.215Z,9.40
2018-05-15T01:27:11.872Z,8.87
2018-05-15T01:29:39.588Z,7.47
2018-05-15T01:32:07.242Z,9.17
2018-05-15T01:34:35.724Z,11.57
2018-05-15T01:37:03.383Z,8.17
2018-05-15T01:39:31.039Z,9.43
2018-05-15T01:41:59.515Z,10.03
2018-05-15T01:44:27.939Z,9.33
2018-05-15T01:46:55.656Z,7.87
2018-05-15T01:49:24.114Z,10.57
2018-05-15T01:51:52.606Z,9.87
2018-05-15T01:54:20.259Z,10.97
2018-05-15T01:56:47.975Z,16.10
2018-05-15T01:59:15.644Z,10.97
2018-05-15T02:01:43.352Z,9.70
2018-05-15T02:04:11.020Z,11.17
2018-05-15T02:06:39.501Z,8.77
2018-05-15T02:09:07.930Z,9.77
2018-05-15T02:11:35.739Z,10.17
2018-05-15T02:14:03.402Z,8.57
2018-05-15T02:16:31.831Z,9.37
2018-05-15T02:18:59.544Z,10.23
2018-05-15T02:21:27.234Z,9.43
2018-05-15T02:23:54.929Z,9.83
2018-05-15T02:26:22.654Z,9.30
2018-05-15T02:28:50.310Z,10.20
2018-05-15T02:31:17.975Z,11.10
2018-05-15T02:33:45.684Z,9.03
2018-05-15T02:36:13.347Z,9.53
2018-05-15T02:38:41.036Z,8.60
2018-05-15T02:41:08.745Z,11.43
2018-05-15T02:43:36.451Z,7.97
2018-05-15T02:46:04.151Z,10.03
2018-05-15T02:48:31.854Z,9.87
2018-05-15T02:51:00.320Z,8.97
2018-05-15T02:53:28.749Z,9.07
2018-05-15T02:55:56.475Z,10.13
2018-05-15T02:58:24.949Z,10.47
2018-05-15T03:00:53.368Z,9.27
2018-05-15T03:03:21.086Z,10.07
2018-05-15T03:05:49.510Z,9.53
2018-05-15T03:08:17.170Z,13.13
2018-05-15T03:10:44.890Z,10.97
2018-05-15T03:13:13.365Z,8.50
2018-05-15T03:15:41.020Z,9.03
2018-05-15T03:18:08.760Z,12.20
2018-05-15T03:20:36.419Z,9.20
2018-05-15T03:23:04.087Z,11.53
2018-05-15T03:25:31.794Z,10.33
2018-05-15T03:28:00.222Z,10.70
2018-05-15T03:30:28.005Z,9.23
2018-05-15T03:32:56.468Z,9.37
2018-05-15T03:35:24.126Z,10.27
2018-05-15T03:37:51.820Z,12.33
2018-05-15T03:40:19.476Z,8.80
2018-05-15T03:42:47.175Z,8.10
2018-05-15T03:45:14.836Z,11.20
2018-05-15T03:47:42.563Z,10.67
2018-05-15T03:50:10.237Z,8.80
2018-05-15T03:52:37.948Z,10.93
2018-05-15T03:55:05.628Z,9.43
2018-05-15T03:57:33.536Z,10.43
2018-05-15T04:00:01.974Z,8.70
2018-05-15T04:02:41.646Z,8.77
2018-05-15T04:05:21.246Z,13.13
2018-05-15T04:08:01.924Z,17.60
2018-05-15T04:10:29.586Z,14.10
2018-05-15T04:12:58.156Z,8.73
2018-05-15T04:15:26.345Z,12.23
2018-05-15T04:17:54.044Z,10.17
2018-05-15T04:20:22.480Z,9.17
2018-05-15T04:22:50.193Z,12.07
2018-05-15T04:25:18.615Z,11.20
2018-05-15T04:27:46.289Z,13.10
2018-05-15T04:30:13.988Z,9.87
2018-05-15T04:32:42.411Z,9.63
2018-05-15T04:35:10.178Z,11.93
2018-05-15T04:37:37.828Z,9.37
2018-05-15T04:40:05.545Z,9.57
2018-05-15T04:42:33.209Z,10.63
2018-05-15T04:45:00.931Z,13.97
2018-05-15T04:47:29.397Z,11.23
2018-05-15T04:49:57.115Z,13.43
2018-05-15T04:52:27.959Z,11.47
2018-05-15T04:54:57.001Z,15.10
2018-05-15T04:57:24.907Z,14.67
2018-05-15T04:59:52.615Z,10.60
2018-05-15T05:02:20.320Z,11.77
2018-05-15T05:04:48.008Z,11.63
2018-05-15T05:07:16.491Z,13.30
2018-05-15T05:09:44.923Z,9.47
2018-05-15T05:12:12.642Z,11.93
2018-05-15T05:14:40.292Z,7.97
2018-05-15T05:17:08.774Z,12.10
2018-05-15T05:19:36.438Z,10.10
2018-05-15T05:22:04.908Z,11.27
2018-05-15T05:24:32.587Z,13.57
2018-05-15T05:27:01.053Z,9.20
2018-05-15T05:29:28.776Z,11.23
2018-05-15T05:31:57.503Z,9.63
2018-05-15T05:34:25.216Z,9.63
2018-05-15T05:36:52.951Z,9.33
2018-05-15T05:39:21.425Z,11.73
2018-05-15T05:41:49.876Z,9.47
2018-05-15T05:44:17.591Z,11.17
2018-05-15T05:46:45.257Z,8.37
2018-05-15T05:49:12.960Z,9.27
2018-05-15T05:51:40.616Z,8.07
2018-05-15T05:54:08.324Z,12.17
2018-05-15T05:56:36.745Z,8.77
2018-05-15T05:59:04.457Z,9.57
2018-05-15T06:01:32.879Z,9.40
2018-05-15T06:04:00.534Z,9.77
2018-05-15T06:06:29.275Z,11.30
2018-05-15T06:08:57.855Z,13.57
2018-05-15T06:11:25.532Z,10.17
2018-05-15T06:13:54.031Z,11.17
2018-05-15T06:16:21.724Z,8.83
2018-05-15T06:18:49.444Z,13.90
2018-05-15T06:21:17.867Z,9.87
2018-05-15T06:23:45.572Z,10.47
2018-05-15T06:26:14.047Z,12.20
2018-05-15T06:28:41.713Z,8.57
2018-05-15T06:31:10.195Z,9.93
2018-05-15T06:33:38.639Z,8.93
2018-05-15T06:36:06.296Z,9.37
2018-05-15T06:38:34.083Z,10.50
2018-05-15T06:41:01.700Z,7.97
2018-05-15T06:43:29.405Z,9.57
2018-05-15T06:45:57.653Z,9.50
2018-05-15T06:48:25.367Z,8.47
2018-05-15T06:50:53.799Z,9.50
2018-05-15T06:53:21.503Z,13.90
2018-05-15T06:55:49.943Z,12.10
2018-05-15T06:58:17.680Z,10.07
2018-05-15T07:00:45.351Z,12.50
2018-05-15T07:03:13.009Z,10.57
2018-05-15T07:05:40.701Z,9.47
2018-05-15T07:08:08.454Z,12.10
2018-05-15T07:10:36.202Z,10.63
2018-05-15T07:13:03.911Z,12.03
2018-05-15T07:15:31.633Z,9.60
2018-05-15T07:17:59.361Z,9.70
2018-05-15T07:20:27.843Z,14.00
2018-05-15T07:22:56.325Z,7.73
2018-05-15T07:25:25.281Z,8.17
2018-05-15T07:27:52.994Z,8.70
2018-05-15T07:30:20.676Z,10.40
2018-05-15T07:32:48.422Z,11.67
2018-05-15T07:35:16.118Z,14.00
2018-05-15T07:37:43.799Z,13.10
2018-05-15T07:40:11.615Z,9.17
2018-05-15T07:45:28.318Z,7.93
2018-05-15T07:47:57.190Z,7.30
2018-05-15T07:50:25.717Z,11.63
2018-05-15T07:52:53.399Z,7.80
2018-05-15T07:55:21.251Z,10.60
2018-05-15T07:57:49.048Z,7.60
2018-05-15T08:00:16.787Z,6.67
2018-05-15T08:02:51.144Z,8.50
2018-05-15T08:05:26.270Z,9.70
2018-05-15T08:07:54.509Z,8.43
2018-05-15T08:10:22.255Z,8.57
2018-05-15T08:12:49.951Z,10.23
2018-05-15T08:15:17.668Z,10.83
2018-05-15T08:17:46.141Z,9.27
2018-05-15T08:20:14.646Z,14.37
2018-05-15T08:22:42.332Z,7.13
2018-05-15T08:25:10.056Z,13.00
2018-05-15T08:27:52.845Z,7.93
2018-05-15T08:30:20.827Z,9.80
2018-05-15T08:32:49.271Z,7.50
2018-05-15T08:35:17.045Z,11.63
2018-05-15T08:37:44.734Z,8.43
2018-05-15T08:40:13.225Z,6.10
2018-05-15T08:42:45.963Z,7.43
2018-05-15T08:45:15.013Z,9.10
2018-05-15T08:47:43.076Z,10.73
2018-05-15T08:50:11.708Z,8.43
2018-05-15T08:52:39.503Z,7.93
2018-05-15T08:55:07.212Z,6.30
2018-05-15T08:57:35.968Z,7.40
2018-05-15T09:00:06.514Z,9.63
2018-05-15T09:02:34.264Z,6.78
2018-05-15T09:05:02.731Z,6.47
2018-05-15T09:07:31.233Z,7.72
2018-05-15T09:09:59.441Z,8.00
2018-05-15T09:12:27.734Z,9.23
2018-05-15T09:14:55.416Z,7.28
2018-05-15T09:17:23.876Z,6.05
2018-05-15T09:19:51.696Z,7.40
2018-05-15T09:22:20.322Z,5.68
2018-05-15T09:24:48.029Z,9.15
2018-05-15T09:27:16.458Z,7.32
2018-05-15T09:29:44.170Z,6.35
2018-05-15T09:32:11.838Z,6.28
2018-05-15T09:34:40.346Z,5.20
2018-05-15T09:37:11.674Z,9.80
2018-05-15T09:39:39.415Z,7.35
2018-05-15T09:42:07.869Z,7.47
2018-05-15T09:44:35.631Z,9.50
2018-05-15T09:47:03.320Z,6.93
2018-05-15T09:49:31.920Z,8.88
2018-05-15T09:52:00.497Z,8.20
2018-05-15T09:54:28.981Z,11.30
2018-05-15T09:56:57.926Z,5.35
2018-05-15T09:59:25.627Z,7.57
2018-05-15T10:01:54.051Z,6.67
2018-05-15T10:04:21.766Z,5.57
2018-05-15T10:06:50.191Z,5.33
2018-05-15T10:09:17.867Z,10.03
2018-05-15T10:11:45.583Z,11.87
2018-05-15T10:14:14.033Z,6.47
2018-05-15T10:16:42.528Z,6.70
2018-05-15T10:19:10.201Z,7.27
2018-05-15T10:21:38.676Z,6.17
2018-05-15T10:24:07.121Z,5.33
2018-05-15T10:26:35.213Z,5.50
2018-05-15T10:29:03.669Z,6.23
2018-05-15T10:31:31.341Z,8.10
2018-05-15T10:33:59.962Z,8.17
2018-05-15T10:36:29.451Z,8.53
2018-05-15T10:38:57.156Z,6.53
2018-05-15T10:41:24.831Z,9.60
2018-05-15T10:43:52.586Z,4.90
2018-05-15T10:46:20.280Z,4.87
2018-05-15T10:48:47.970Z,8.00
2018-05-15T10:51:16.413Z,7.27
2018-05-15T10:53:44.125Z,7.80
2018-05-15T10:56:12.549Z,5.13
2018-05-15T10:58:40.980Z,8.97
2018-05-15T11:01:09.458Z,4.90
2018-05-15T11:03:37.884Z,6.10
2018-05-15T11:06:05.614Z,4.80
2018-05-15T11:08:33.280Z,8.70
2018-05-15T11:11:00.967Z,6.37
2018-05-15T11:13:28.666Z,5.13
2018-05-15T11:15:56.388Z,8.80
2018-05-15T11:18:48.102Z,5.27
2018-05-15T11:21:27.678Z,8.40
2018-05-15T11:27:09.187Z,4.90
2018-05-15T11:29:36.863Z,8.63
2018-05-15T11:32:04.600Z,4.03
2018-05-15T11:34:32.257Z,5.27
2018-05-15T11:37:00.901Z,5.83
2018-05-15T11:39:29.326Z,6.17
2018-05-15T11:41:57.042Z,6.03
2018-05-15T11:44:24.748Z,5.57
2018-05-15T11:46:52.424Z,4.73
2018-05-15T11:49:20.488Z,4.47
2018-05-15T11:51:49.333Z,7.07
2018-05-15T11:54:16.295Z,6.20
2018-05-15T11:56:44.025Z,5.70
2018-05-15T11:59:13.407Z,6.07
2018-05-15T12:01:41.210Z,5.63
2018-05-15T12:04:08.972Z,4.27
2018-05-15T12:06:36.689Z,4.30
2018-05-15T12:09:05.266Z,6.93
2018-05-15T12:11:32.933Z,7.20
2018-05-15T12:14:00.595Z,5.97
2018-05-15T12:16:29.879Z,5.20
2018-05-15T12:18:57.601Z,4.67
2018-05-15T12:21:25.312Z,4.27
2018-05-15T12:23:53.741Z,8.33
2018-05-15T12:26:22.225Z,4.43
2018-05-15T12:28:50.648Z,4.77
2018-05-15T12:31:18.315Z,5.43
2018-05-15T12:33:46.027Z,4.13
2018-05-15T12:36:14.452Z,4.53
2018-05-15T12:38:42.156Z,7.67
2018-05-15T12:41:10.667Z,4.90
2018-05-15T12:43:38.339Z,7.87
2018-05-15T12:46:06.028Z,7.70
2018-05-15T12:48:33.745Z,5.67
2018-05-15T12:51:02.206Z,5.20
2018-05-15T12:53:31.136Z,5.70
2018-05-15T12:55:59.947Z,5.63
2018-05-15T12:58:27.663Z,4.93
2018-05-15T13:00:55.356Z,4.10
2018-05-15T13:03:23.070Z,5.03
2018-05-15T13:05:51.554Z,5.83
2018-05-15T13:08:20.032Z,6.00
2018-05-15T13:10:48.507Z,5.70
2018-05-15T13:13:16.948Z,4.30
2018-05-15T13:15:44.651Z,5.73
2018-05-15T13:18:13.144Z,5.63
2018-05-15T13:20:40.830Z,6.20
2018-05-15T13:23:08.483Z,5.57
2018-05-15T13:25:36.208Z,3.90
2018-05-15T13:28:03.871Z,4.30
2018-05-15T13:30:31.609Z,5.60
2018-05-15T13:32:59.445Z,5.43
2018-05-15T13:35:27.255Z,6.90
2018-05-15T13:37:54.926Z,6.80
2018-05-15T13:40:22.620Z,3.57
2018-05-15T13:42:51.093Z,4.23
2018-05-15T13:45:19.512Z,6.47
2018-05-15T13:47:47.218Z,4.07
2018-05-15T13:50:14.947Z,7.10
2018-05-15T13:52:42.629Z,6.27
2018-05-15T13:55:10.331Z,8.20
2018-05-15T13:57:38.820Z,7.10
2018-05-15T14:00:06.495Z,6.47
2018-05-15T14:02:34.224Z,9.70
2018-05-15T14:05:02.639Z,5.97
2018-05-15T14:07:31.632Z,4.13
2018-05-15T14:09:59.397Z,3.50
2018-05-15T14:12:27.194Z,4.13
2018-05-15T14:14:55.562Z,3.27
2018-05-15T14:17:23.287Z,3.87
2018-05-15T14:19:50.952Z,2.50
2018-05-15T14:22:18.673Z,2.53
2018-05-15T14:24:46.372Z,5.00
2018-05-15T14:27:14.066Z,3.07
2018-05-15T14:29:41.741Z,3.13
2018-05-15T14:32:09.435Z,2.93
2018-05-15T14:34:37.876Z,5.93
2018-05-15T14:37:05.575Z,3.43
2018-05-15T14:39:34.023Z,4.30
2018-05-15T14:42:13.621Z,3.27
2018-05-15T14:44:41.293Z,3.77
2018-05-15T14:47:08.956Z,3.43
2018-05-15T14:49:36.667Z,3.10
2018-05-15T14:52:04.345Z,4.60
2018-05-15T14:54:32.819Z,4.50
2018-05-15T14:57:00.476Z,4.97
2018-05-15T14:59:28.184Z,4.23
2018-05-15T15:01:55.848Z,5.23
2018-05-15T15:04:23.573Z,3.67
2018-05-15T15:06:52.039Z,8.53
2018-05-15T15:09:19.742Z,6.97
2018-05-15T15:11:47.409Z,5.57
2018-05-15T15:14:15.135Z,7.07
2018-05-15T15:16:43.590Z,5.30
2018-05-15T15:19:11.313Z,7.77
2018-05-15T15:21:38.995Z,5.50
2018-05-15T15:24:06.712Z,3.63
2018-05-15T15:26:34.370Z,3.63
2018-05-15T15:29:02.862Z,4.93
2018-05-15T15:31:32.165Z,4.20
2018-05-15T15:34:00.584Z,3.63
2018-05-15T15:36:28.300Z,2.93
2018-05-15T15:38:56.731Z,2.27
2018-05-15T15:41:24.437Z,4.13
2018-05-15T15:43:52.101Z,2.20
2018-05-15T15:46:20.592Z,2.03
2018-05-15T15:48:49.069Z,2.10
2018-05-15T15:51:17.534Z,2.13
2018-05-15T15:53:45.187Z,3.27
2018-05-15T15:56:12.909Z,2.00
2018-05-15T15:58:40.574Z,2.77
2018-05-15T16:01:08.278Z,2.70
2018-05-15T16:03:35.956Z,3.60
2018-05-15T16:06:04.451Z,4.67
2018-05-15T16:08:32.911Z,3.43
2018-05-15T16:11:00.587Z,3.83
2018-05-15T16:13:29.059Z,3.33
2018-05-15T16:15:57.487Z,3.53
2018-05-15T16:18:25.276Z,4.73
2018-05-15T16:20:52.963Z,3.47
2018-05-15T16:23:20.680Z,3.17
2018-05-15T16:25:48.358Z,3.80
2018-05-15T16:28:16.113Z,2.63
2018-05-15T16:30:43.786Z,3.00
2018-05-15T16:33:11.500Z,2.30
2018-05-15T16:35:39.226Z,3.47
2018-05-15T16:38:06.953Z,3.37
2018-05-15T16:40:34.659Z,2.93
2018-05-15T16:43:02.398Z,3.57
2018-05-15T16:45:30.696Z,2.20
2018-05-15T16:47:58.766Z,2.53
2018-05-15T16:50:26.459Z,2.60
2018-05-15T16:52:54.171Z,4.23
2018-05-15T16:55:21.882Z,2.67
2018-05-15T16:57:50.315Z,2.40
2018-05-15T17:00:18.021Z,2.60
2018-05-15T17:02:46.449Z,3.00
2018-05-15T17:05:14.217Z,3.47
2018-05-15T17:07:41.938Z,3.07
2018-05-15T17:10:09.667Z,2.90
2018-05-15T17:12:37.337Z,2.80
2018-05-15T17:15:05.100Z,2.00
2018-05-15T17:17:32.899Z,2.50
2018-05-15T17:20:01.380Z,3.43
2018-05-15T17:22:29.083Z,4.43
2018-05-15T17:24:56.878Z,2.90
2018-05-15T17:27:25.362Z,5.00
2018-05-15T17:29:53.899Z,4.93
2018-05-15T17:32:22.412Z,3.13
2018-05-15T17:34:57.337Z,2.50
2018-05-15T17:37:25.539Z,3.60
2018-05-15T17:39:54.136Z,4.70
2018-05-15T17:42:21.838Z,4.77
2018-05-15T17:44:49.617Z,3.17
2018-05-15T17:47:18.234Z,2.13
2018-05-15T17:49:46.010Z,2.57
2018-05-15T17:52:13.947Z,2.20
2018-05-15T17:54:41.744Z,2.33
2018-05-15T17:57:09.764Z,2.97
2018-05-15T17:59:37.624Z,3.67
2018-05-15T18:02:05.408Z,2.63
2018-05-15T18:04:33.881Z,2.77
2018-05-15T18:07:01.782Z,2.70
2018-05-15T18:09:29.572Z,2.40
2018-05-15T18:11:57.258Z,3.40
2018-05-15T18:14:24.996Z,2.93
2018-05-15T18:16:52.692Z,3.10
2018-05-15T18:19:21.197Z,4.17
2018-05-15T18:21:49.743Z,5.50
2018-05-15T18:24:17.498Z,4.00
2018-05-15T18:26:45.215Z,2.90
2018-05-15T18:29:13.678Z,3.47
2018-05-15T18:31:42.793Z,3.20
2018-05-15T18:34:12.192Z,4.43
2018-05-15T18:36:41.306Z,3.30
2018-05-15T18:39:09.121Z,3.53
2018-05-15T18:41:37.593Z,3.80
2018-05-15T18:44:05.938Z,4.83
2018-05-15T18:46:33.619Z,2.93
2018-05-15T18:49:01.749Z,3.50
2018-05-15T18:51:29.556Z,4.67
2018-05-15T18:53:57.275Z,2.87
2018-05-15T18:56:25.835Z,3.63
2018-05-15T18:58:54.270Z,2.93
2018-05-15T19:01:22.143Z,2.37
2018-05-15T19:03:49.906Z,4.30
2018-05-15T19:06:17.767Z,3.00
2018-05-15T19:08:45.577Z,3.87
2018-05-15T19:11:14.053Z,3.10
2018-05-15T19:13:43.182Z,3.10
2018-05-15T19:16:11.673Z,2.60
2018-05-15T19:18:39.387Z,2.60
2018-05-15T19:21:07.131Z,2.73
2018-05-15T19:23:34.846Z,2.20
2018-05-15T19:26:04.134Z,2.30
2018-05-15T19:28:33.241Z,9.57
2018-05-15T19:31:03.304Z,3.20
2018-05-15T19:33:36.787Z,4.33
2018-05-15T19:36:11.354Z,4.27
2018-05-15T19:38:39.037Z,2.67
2018-05-15T19:41:07.579Z,3.60
2018-05-15T19:43:36.377Z,3.73
2018-05-15T19:46:04.088Z,2.93
2018-05-15T19:48:32.871Z,3.53
2018-05-15T19:51:02.475Z,3.17
2018-05-15T19:53:30.191Z,3.60
2018-05-15T19:55:58.836Z,3.27
2018-05-15T19:58:26.546Z,4.00
2018-05-15T20:00:54.254Z,2.90
2018-05-15T20:03:22.691Z,3.90
2018-05-15T20:05:51.174Z,4.27
2018-05-15T20:08:18.840Z,4.20
2018-05-15T20:10:46.581Z,5.03
2018-05-15T20:13:15.059Z,3.63
2018-05-15T20:15:42.735Z,3.80
2018-05-15T20:18:10.457Z,3.83
2018-05-15T20:20:38.115Z,5.23
2018-05-15T20:23:05.853Z,4.40
2018-05-15T20:25:34.332Z,4.47
2018-05-15T20:28:03.769Z,5.10
2018-05-15T20:30:32.654Z,6.33
2018-05-15T20:33:00.323Z,5.40
2018-05-15T20:35:28.227Z,5.93
2018-05-15T20:37:56.671Z,5.47
2018-05-15T20:40:24.391Z,4.80
2018-05-15T20:42:52.062Z,5.87
2018-05-15T20:45:20.544Z,5.43
2018-05-15T20:47:48.208Z,4.23
2018-05-15T20:50:16.638Z,5.67
2018-05-15T20:52:44.347Z,5.80
2018-05-15T20:55:12.060Z,5.57
2018-05-15T20:57:39.720Z,4.87
2018-05-15T21:00:07.385Z,6.00
2018-05-15T21:02:35.087Z,5.40
2018-05-15T21:05:03.779Z,5.33
2018-05-15T21:07:31.922Z,7.67
2018-05-15T21:09:59.584Z,5.60
2018-05-15T21:12:27.252Z,7.43
2018-05-15T21:14:54.966Z,5.80
2018-05-15T21:17:22.708Z,7.77
2018-05-15T21:19:51.141Z,6.97
2018-05-15T21:22:18.818Z,6.60
2018-05-15T21:24:46.530Z,6.93
2018-05-15T21:27:14.237Z,5.50
2018-05-15T21:29:41.956Z,5.53
2018-05-15T21:32:09.633Z,5.57
2018-05-15T21:34:37.356Z,9.30
2018-05-15T21:37:05.790Z,7.03
2018-05-15T21:39:34.625Z,7.90
2018-05-15T21:42:03.712Z,6.40
2018-05-15T21:44:32.068Z,6.93
2018-05-15T21:46:59.782Z,6.53
2018-05-15T21:49:28.214Z,7.27
2018-05-15T21:51:55.923Z,6.90
2018-05-15T21:54:24.450Z,7.83
2018-05-15T21:56:52.127Z,8.17
2018-05-15T21:59:19.815Z,10.40
2018-05-15T22:01:48.295Z,7.47
2018-05-15T22:04:16.790Z,10.97
2018-05-15T22:06:45.251Z,8.00
2018-05-15T22:09:13.798Z,9.57
2018-05-15T22:11:53.425Z,8.40
2018-05-15T22:14:33.041Z,9.03
2018-05-15T22:17:13.424Z,10.73
2018-05-15T22:19:53.116Z,8.10
2018-05-15T22:22:20.375Z,10.83
2018-05-15T22:24:48.044Z,11.70
2018-05-15T22:27:16.522Z,10.80
2018-05-15T22:29:44.960Z,11.27
2018-05-15T22:32:12.702Z,12.27
2018-05-15T22:34:40.392Z,12.00
2018-05-15T22:37:08.092Z,9.90
2018-05-15T22:39:36.581Z,12.90
2018-05-15T22:42:05.052Z,9.57
2018-05-15T22:44:34.317Z,12.50
2018-05-15T22:47:03.012Z,12.37
2018-05-15T22:49:30.701Z,12.03
2018-05-15T22:51:59.205Z,12.17
2018-05-15T22:54:26.962Z,11.33
2018-05-15T22:56:54.679Z,10.00
2018-05-15T22:59:22.343Z,10.77
2018-05-15T23:01:50.093Z,13.47
2018-05-15T23:04:17.757Z,12.90
2018-05-15T23:06:45.419Z,15.13
2018-05-15T23:09:13.128Z,12.00
2018-05-15T23:11:41.571Z,17.10
2018-05-15T23:14:09.295Z,16.47
2018-05-15T23:16:36.975Z,14.37
2018-05-15T23:19:04.690Z,14.90
2018-05-15T23:21:34.084Z,21.57
2018-05-15T23:24:03.448Z,17.83
2018-05-15T23:26:31.120Z,17.00
2018-05-15T23:28:58.858Z,16.67
2018-05-15T23:31:26.541Z,17.90
2018-05-15T23:33:54.969Z,18.50
2018-05-15T23:36:23.450Z,13.77
2018-05-15T23:38:51.896Z,17.67
2018-05-15T23:41:19.627Z,15.93
2018-05-15T23:43:47.311Z,14.37
2018-05-15T23:46:15.021Z,15.67
2018-05-15T23:48:43.456Z,17.70
2018-05-15T23:51:11.162Z,19.50
2018-05-15T23:53:38.874Z,19.00
2018-05-15T23:56:06.596Z,21.73
2018-05-15T23:58:34.283Z,20.70
